Time;durP1;ratioP1;P1;durP2;ratioP2;P2;SDS_P1;SDS_P2;PMS_P1;PMS_P2;Temp;Humidity;BMP_temperature;BMP_pressure;BME280_temperature;BME280_humidity;BME280_pressure;Samples;Min_cycle;Max_cycle;Signal;HPM_P1;HPM_P2
2022/01/01 00:00:33;;;;;;;34.97;21.50;;;11.40;99.90;;;;;;5043063;28;20273;-54
2022/01/01 00:03:00;;;;;;;36.67;17.57;;;11.40;99.90;;;;;;5042106;28;20219;-48
2022/01/01 00:05:27;;;;;;;32.53;15.90;;;11.40;99.90;;;;;;5050792;28;20203;-54
2022/01/01 00:07:57;;;;;;;24.20;14.37;;;11.40;99.90;;;;;;5034644;28;20574;-51
2022/01/01 00:10:23;;;;;;;31.27;14.30;;;11.40;99.90;;;;;;5048928;28;20217;-54
2022/01/01 00:12:50;;;;;;;29.97;13.23;;;11.30;99.90;;;;;;5048559;28;20214;-55
2022/01/01 00:15:18;;;;;;;23.30;13.13;;;11.30;99.90;;;;;;5049476;28;20198;-54
2022/01/01 00:17:45;;;;;;;27.13;12.80;;;11.30;99.90;;;;;;5053802;28;20686;-53
2022/01/01 00:20:14;;;;;;;21.13;11.40;;;11.30;99.90;;;;;;5040394;28;20223;-53
2022/01/01 00:22:43;;;;;;;19.40;10.70;;;11.30;99.90;;;;;;5039643;28;20592;-56
2022/01/01 00:25:13;;;;;;;24.77;10.40;;;11.30;99.90;;;;;;5042567;28;20201;-53
2022/01/01 00:27:40;;;;;;;22.13;9.77;;;11.30;99.90;;;;;;5046280;28;20203;-56
2022/01/01 00:30:07;;;;;;;21.13;10.13;;;11.30;99.90;;;;;;5038804;28;21051;-55
2022/01/01 00:32:34;;;;;;;16.87;9.47;;;11.30;99.90;;;;;;5043048;28;20302;-55
2022/01/01 00:35:01;;;;;;;34.87;19.07;;;11.30;99.90;;;;;;5039417;28;20198;-52
2022/01/01 00:37:28;;;;;;;27.30;15.33;;;11.30;99.90;;;;;;5044585;28;20555;-52
2022/01/01 00:39:55;;;;;;;29.03;12.73;;;11.30;99.90;;;;;;5040724;28;20211;-54
2022/01/01 00:42:24;;;;;;;22.83;11.63;;;11.30;99.90;;;;;;5049104;28;20215;-53
2022/01/01 00:44:51;;;;;;;24.40;10.13;;;11.30;99.90;;;;;;5044403;28;20217;-54
2022/01/01 00:47:18;;;;;;;19.07;10.40;;;11.30;99.90;;;;;;5056634;28;20202;-53
2022/01/01 00:49:45;;;;;;;21.47;9.20;;;11.30;99.90;;;;;;5051871;28;20304;-54
2022/01/01 00:52:12;;;;;;;22.80;9.53;;;11.30;99.90;;;;;;5045379;28;20208;-52
2022/01/01 00:54:39;;;;;;;23.10;10.23;;;11.30;99.90;;;;;;5041103;28;20203;-56
2022/01/01 00:57:06;;;;;;;20.60;9.43;;;11.30;99.90;;;;;;5055226;28;20952;-52
2022/01/01 00:59:34;;;;;;;21.70;9.63;;;11.30;99.90;;;;;;5047518;28;20622;-53
2022/01/01 01:02:00;;;;;;;25.20;8.73;;;11.30;99.90;;;;;;5038014;28;20449;-51
2022/01/01 01:04:27;;;;;;;23.37;9.13;;;11.30;99.90;;;;;;5056382;28;20198;-49
2022/01/01 01:06:54;;;;;;;21.03;8.20;;;11.30;99.90;;;;;;5052571;28;20206;-54
2022/01/01 01:09:21;;;;;;;25.70;7.50;;;11.30;99.90;;;;;;5056238;28;20195;-54
2022/01/01 01:11:51;;;;;;;24.73;7.83;;;11.30;99.90;;;;;;5040584;28;20210;-52
2022/01/01 01:14:21;;;;;;;14.37;6.67;;;11.30;99.90;;;;;;5046626;28;20277;-56
2022/01/01 01:16:50;;;;;;;21.80;7.00;;;11.30;99.90;;;;;;5046483;28;20309;-56
2022/01/01 01:19:17;;;;;;;21.63;6.73;;;11.20;99.90;;;;;;5049506;28;20211;-50
2022/01/01 01:21:45;;;;;;;20.53;6.93;;;11.20;99.90;;;;;;5044182;28;20210;-53
2022/01/01 01:24:13;;;;;;;15.70;6.83;;;11.20;99.90;;;;;;5044041;28;20191;-54
2022/01/01 01:26:46;;;;;;;15.33;6.93;;;11.20;99.90;;;;;;5036902;28;20717;-54
2022/01/01 01:29:12;;;;;;;18.13;5.93;;;11.20;99.90;;;;;;5054443;28;20750;-50
2022/01/01 01:31:39;;;;;;;16.17;6.63;;;11.20;99.90;;;;;;5047529;28;20213;-55
2022/01/01 01:34:07;;;;;;;19.77;7.30;;;11.20;99.90;;;;;;5043286;28;20202;-49
2022/01/01 01:36:34;;;;;;;14.63;6.30;;;11.20;99.90;;;;;;5045802;28;20306;-56
2022/01/01 01:39:01;;;;;;;20.93;6.97;;;11.20;99.90;;;;;;5041897;28;20213;-56
2022/01/01 01:41:30;;;;;;;18.20;6.83;;;11.20;99.90;;;;;;5045758;28;20230;-56
2022/01/01 01:43:58;;;;;;;25.80;8.40;;;11.20;99.90;;;;;;5035933;28;20227;-50
2022/01/01 01:46:26;;;;;;;18.43;7.87;;;11.20;99.90;;;;;;5051294;28;20208;-56
2022/01/01 01:48:54;;;;;;;16.40;6.90;;;11.20;99.90;;;;;;5048162;28;20207;-53
2022/01/01 01:51:22;;;;;;;17.93;7.70;;;11.20;99.90;;;;;;5045920;28;20196;-55
2022/01/01 01:53:49;;;;;;;24.30;8.30;;;11.20;99.90;;;;;;5042252;28;20235;-56
2022/01/01 01:56:16;;;;;;;18.33;7.70;;;11.20;99.90;;;;;;5044760;28;20191;-53
2022/01/01 01:58:44;;;;;;;16.97;7.30;;;11.20;99.90;;;;;;5036989;28;20204;-54
2022/01/01 02:03:56;;;;;;;17.90;7.13;;;11.20;99.90;;;;;;5041413;28;20227;-53
2022/01/01 02:06:25;;;;;;;17.83;7.07;;;11.20;99.90;;;;;;5045367;28;20203;-51
2022/01/01 02:08:52;;;;;;;19.47;7.27;;;11.20;99.90;;;;;;5042209;28;20668;-52
2022/01/01 02:11:21;;;;;;;18.33;7.37;;;11.20;99.90;;;;;;5045040;28;20575;-52
2022/01/01 02:16:49;;;;;;;22.47;8.47;;;11.20;99.90;;;;;;5049776;28;20563;-54
2022/01/01 02:19:15;;;;;;;19.73;7.53;;;11.20;99.90;;;;;;5043980;28;20203;-51
2022/01/01 02:21:43;;;;;;;20.10;9.07;;;11.20;99.90;;;;;;5043776;28;20203;-55
2022/01/01 02:24:10;;;;;;;18.00;7.67;;;11.20;99.90;;;;;;5043148;28;20198;-51
2022/01/01 02:26:37;;;;;;;21.23;8.00;;;11.20;99.90;;;;;;5044119;28;20207;-52
2022/01/01 02:29:04;;;;;;;20.93;8.00;;;11.20;99.90;;;;;;5035416;28;20203;-42
2022/01/01 02:31:33;;;;;;;19.47;7.93;;;11.20;99.90;;;;;;5052296;28;20249;-44
2022/01/01 02:34:05;;;;;;;17.73;7.77;;;11.20;99.90;;;;;;5037583;28;20203;-41
2022/01/01 02:36:33;;;;;;;21.40;9.67;;;11.20;99.90;;;;;;5046712;28;20203;-41
2022/01/01 02:39:09;;;;;;;20.43;8.57;;;11.20;99.90;;;;;;5039164;28;20851;-47
2022/01/01 02:41:36;;;;;;;21.77;9.30;;;11.20;99.90;;;;;;5044467;28;20714;-42
2022/01/01 02:44:05;;;;;;;21.57;10.27;;;11.20;99.90;;;;;;5029950;28;20384;-43
2022/01/01 02:46:32;;;;;;;23.53;9.80;;;11.20;99.90;;;;;;5059589;28;20215;-44
2022/01/01 02:49:00;;;;;;;21.53;9.83;;;11.30;99.90;;;;;;5038873;28;21033;-42
2022/01/01 02:51:27;;;;;;;19.63;9.83;;;11.30;99.90;;;;;;5044953;28;20199;-42
2022/01/01 02:53:53;;;;;;;23.53;11.67;;;11.30;99.90;;;;;;5040597;28;20234;-42
2022/01/01 02:56:22;;;;;;;24.70;10.17;;;11.30;99.90;;;;;;5044112;28;20232;-43
2022/01/01 02:58:48;;;;;;;20.00;9.93;;;11.30;99.90;;;;;;5033744;28;20192;-43
2022/01/01 03:01:16;;;;;;;25.47;10.07;;;11.30;99.90;;;;;;5048457;28;20223;-41
2022/01/01 03:03:43;;;;;;;23.83;11.13;;;11.30;99.90;;;;;;5043204;28;20268;-44
2022/01/01 03:06:10;;;;;;;23.07;10.53;;;11.30;99.90;;;;;;5042201;28;20399;-43
2022/01/01 03:08:37;;;;;;;25.80;11.67;;;11.30;99.90;;;;;;5043581;28;20206;-41
2022/01/01 03:11:05;;;;;;;20.73;10.67;;;11.30;99.90;;;;;;5040858;28;20191;-42
2022/01/01 03:13:33;;;;;;;26.30;11.93;;;11.30;99.90;;;;;;5044030;28;20626;-46
2022/01/01 03:16:00;;;;;;;24.77;12.00;;;11.30;99.90;;;;;;5036850;28;20202;-46
2022/01/01 03:18:27;;;;;;;19.87;11.63;;;11.30;99.90;;;;;;5054549;28;20199;-43
2022/01/01 03:20:54;;;;;;;23.07;11.93;;;11.30;99.90;;;;;;5036110;28;20223;-42
2022/01/01 03:23:21;;;;;;;25.13;11.70;;;11.30;99.90;;;;;;5043689;28;20227;-42
2022/01/01 03:25:48;;;;;;;24.40;12.10;;;11.30;99.90;;;;;;5040983;28;20290;-43
2022/01/01 03:28:15;;;;;;;27.80;11.43;;;11.30;99.90;;;;;;5042999;28;20204;-42
2022/01/01 03:30:43;;;;;;;25.33;12.07;;;11.30;99.90;;;;;;5034585;28;20202;-44
2022/01/01 03:33:10;;;;;;;28.07;13.97;;;11.30;99.90;;;;;;5047004;28;20325;-42
2022/01/01 03:35:37;;;;;;;29.00;12.73;;;11.30;99.90;;;;;;5043137;28;20203;-42
2022/01/01 03:38:04;;;;;;;24.40;13.07;;;11.30;99.90;;;;;;5040311;28;20211;-41
2022/01/01 03:40:31;;;;;;;24.23;11.43;;;11.40;99.90;;;;;;5043447;28;20227;-45
2022/01/01 03:42:58;;;;;;;24.10;11.33;;;11.40;99.90;;;;;;5039489;28;20222;-41
2022/01/01 03:45:25;;;;;;;22.97;11.87;;;11.30;99.90;;;;;;5035837;28;20210;-41
2022/01/01 03:47:53;;;;;;;26.07;12.57;;;11.30;99.90;;;;;;5046229;28;20603;-42
2022/01/01 03:50:20;;;;;;;26.43;12.43;;;11.40;99.90;;;;;;5049373;28;20200;-43
2022/01/01 03:52:47;;;;;;;24.37;11.43;;;11.40;99.90;;;;;;5039225;28;20231;-41
2022/01/01 03:55:15;;;;;;;22.27;11.47;;;11.40;99.90;;;;;;5042136;28;20206;-41
2022/01/01 03:57:42;;;;;;;23.60;11.87;;;11.30;99.90;;;;;;5041783;28;20199;-42
2022/01/01 04:00:12;;;;;;;27.53;11.70;;;11.30;99.90;;;;;;5041025;28;20215;-41
2022/01/01 04:02:42;;;;;;;29.33;12.40;;;11.30;99.90;;;;;;5038799;28;20226;-44
2022/01/01 04:05:10;;;;;;;26.67;11.57;;;11.30;99.90;;;;;;5043709;28;20221;-42
2022/01/01 04:07:37;;;;;;;25.40;11.40;;;11.30;99.90;;;;;;5042868;28;20191;-43
2022/01/01 04:10:05;;;;;;;21.43;11.33;;;11.40;99.90;;;;;;5041056;28;20198;-43
2022/01/01 04:12:31;;;;;;;22.83;11.67;;;11.40;99.90;;;;;;5047363;28;20670;-45
2022/01/01 04:15:00;;;;;;;35.20;12.67;;;11.30;99.90;;;;;;5045548;28;20908;-41
2022/01/01 04:17:28;;;;;;;28.33;12.00;;;11.30;99.90;;;;;;5046954;28;20230;-44
2022/01/01 04:19:55;;;;;;;23.83;12.17;;;11.30;99.90;;;;;;5049002;28;20202;-44
2022/01/01 04:22:23;;;;;;;27.90;12.37;;;11.30;99.90;;;;;;5047409;28;20227;-42
2022/01/01 04:24:50;;;;;;;25.10;12.63;;;11.30;99.90;;;;;;5043564;28;20207;-41
2022/01/01 04:27:17;;;;;;;27.90;11.30;;;11.30;99.90;;;;;;5046229;28;20208;-45
2022/01/01 04:29:44;;;;;;;32.70;12.90;;;11.30;99.90;;;;;;5042967;28;20972;-44
2022/01/01 04:32:14;;;;;;;31.93;13.27;;;11.30;99.90;;;;;;5034410;28;20298;-46
2022/01/01 04:34:41;;;;;;;22.37;12.07;;;11.30;99.90;;;;;;5059023;28;20187;-43
2022/01/01 04:37:12;;;;;;;28.57;12.93;;;11.40;99.90;;;;;;5047035;28;20195;-43
2022/01/01 04:39:40;;;;;;;24.77;12.37;;;11.30;99.90;;;;;;5044061;28;20207;-42
2022/01/01 04:42:07;;;;;;;34.83;14.13;;;11.30;99.90;;;;;;5046419;28;20223;-41
2022/01/01 04:44:34;;;;;;;27.07;13.27;;;11.30;99.90;;;;;;5042476;28;20187;-45
2022/01/01 04:47:01;;;;;;;30.60;13.97;;;11.30;99.90;;;;;;5039539;28;20195;-43
2022/01/01 04:49:28;;;;;;;30.27;14.43;;;11.30;99.90;;;;;;5050844;28;20699;-45
2022/01/01 04:51:54;;;;;;;27.40;15.60;;;11.30;99.90;;;;;;5046781;28;20224;-44
2022/01/01 04:54:21;;;;;;;26.47;13.53;;;11.30;99.90;;;;;;5059547;28;20214;-41
2022/01/01 04:56:50;;;;;;;33.03;15.53;;;11.30;99.90;;;;;;5049976;28;20214;-41
2022/01/01 04:59:17;;;;;;;27.00;14.77;;;11.30;99.90;;;;;;5064428;28;20281;-42
2022/01/01 05:01:45;;;;;;;27.87;13.90;;;11.30;99.90;;;;;;5034343;28;20419;-42
2022/01/01 05:04:12;;;;;;;32.90;14.53;;;11.30;99.90;;;;;;5048603;28;20668;-42
2022/01/01 05:06:41;;;;;;;24.43;14.77;;;11.30;99.90;;;;;;5049645;28;20703;-42
2022/01/01 05:09:08;;;;;;;33.70;14.50;;;11.30;99.90;;;;;;5046151;28;20203;-41
2022/01/01 05:11:35;;;;;;;29.97;13.93;;;11.30;99.90;;;;;;5042959;28;20955;-43
2022/01/01 05:14:04;;;;;;;27.80;14.77;;;11.30;99.90;;;;;;5046143;28;20195;-42
2022/01/01 05:16:31;;;;;;;30.90;15.70;;;11.30;99.90;;;;;;5051233;28;20191;-43
2022/01/01 05:18:58;;;;;;;35.90;15.47;;;11.30;99.90;;;;;;5039241;28;20206;-46
2022/01/01 05:21:27;;;;;;;37.27;17.30;;;11.30;99.90;;;;;;5048701;28;20261;-42
2022/01/01 05:23:53;;;;;;;31.17;16.67;;;11.30;99.90;;;;;;5045145;28;20225;-44
2022/01/01 05:26:21;;;;;;;30.40;16.77;;;11.30;99.90;;;;;;5041091;28;20211;-42
2022/01/01 05:28:49;;;;;;;39.50;17.60;;;11.30;99.90;;;;;;5049618;28;20909;-44
2022/01/01 05:31:19;;;;;;;30.43;15.10;;;11.30;99.90;;;;;;5044781;28;20648;-41
2022/01/01 05:33:46;;;;;;;30.57;15.73;;;11.30;99.90;;;;;;5034884;28;20222;-44
2022/01/01 05:36:13;;;;;;;27.53;15.97;;;11.30;99.90;;;;;;5050600;28;20206;-42
2022/01/01 05:38:40;;;;;;;33.13;16.90;;;11.30;99.90;;;;;;5048528;28;20200;-42
2022/01/01 05:41:07;;;;;;;38.20;17.37;;;11.30;99.90;;;;;;5045704;28;20216;-43
2022/01/01 05:43:34;;;;;;;31.83;17.23;;;11.30;99.90;;;;;;5040021;28;20249;-44
2022/01/01 05:46:01;;;;;;;40.97;17.03;;;11.30;99.90;;;;;;5055480;28;20210;-43
2022/01/01 05:48:29;;;;;;;38.27;18.13;;;11.30;99.90;;;;;;5048069;28;20956;-41
2022/01/01 05:50:56;;;;;;;32.33;16.43;;;11.30;99.90;;;;;;5038461;28;20211;-44
2022/01/01 05:53:24;;;;;;;35.63;17.23;;;11.30;99.90;;;;;;5047253;28;20726;-44
2022/01/01 05:55:51;;;;;;;38.10;17.40;;;11.30;99.90;;;;;;5045498;28;20214;-43
2022/01/01 05:58:18;;;;;;;32.60;18.90;;;11.30;99.90;;;;;;5041647;28;20206;-44
2022/01/01 06:00:45;;;;;;;37.37;16.90;;;11.30;99.90;;;;;;5047267;28;20410;-46
2022/01/01 06:03:13;;;;;;;32.80;16.73;;;11.30;99.90;;;;;;5044549;28;20296;-43
2022/01/01 06:05:41;;;;;;;38.87;18.53;;;11.30;99.90;;;;;;5030846;28;20612;-43
2022/01/01 06:08:08;;;;;;;41.70;18.63;;;11.30;99.90;;;;;;5052701;28;20206;-43
2022/01/01 06:10:35;;;;;;;38.53;17.63;;;11.30;99.90;;;;;;5046575;28;20198;-41
2022/01/01 06:13:05;;;;;;;38.40;16.93;;;11.40;99.90;;;;;;5045385;28;20223;-47
2022/01/01 06:15:33;;;;;;;38.30;17.13;;;11.30;99.90;;;;;;5046166;28;20195;-43
2022/01/01 06:18:00;;;;;;;32.93;17.37;;;11.30;99.90;;;;;;5056356;28;20205;-44
2022/01/01 06:20:26;;;;;;;37.17;18.10;;;11.30;99.90;;;;;;5044503;28;20195;-42
2022/01/01 06:22:55;;;;;;;40.27;16.80;;;11.40;99.90;;;;;;5041606;28;20222;-42
2022/01/01 06:25:22;;;;;;;35.90;16.67;;;11.30;99.90;;;;;;5046100;28;20203;-41
2022/01/01 06:27:48;;;;;;;41.00;18.77;;;11.30;99.90;;;;;;5044396;28;20196;-40
2022/01/01 06:30:15;;;;;;;36.23;17.50;;;11.40;99.90;;;;;;5040417;28;20213;-42
2022/01/01 06:32:42;;;;;;;39.20;17.33;;;11.30;99.90;;;;;;5042447;28;20203;-41
2022/01/01 06:35:09;;;;;;;31.13;16.10;;;11.30;99.90;;;;;;5043650;28;20214;-42
2022/01/01 06:37:36;;;;;;;36.83;17.83;;;11.30;99.90;;;;;;5029886;28;20215;-46
2022/01/01 06:40:06;;;;;;;32.67;16.60;;;11.30;99.90;;;;;;5051184;28;20195;-46
2022/01/01 06:42:32;;;;;;;27.77;15.23;;;11.30;99.90;;;;;;5044439;28;20318;-42
2022/01/01 06:44:59;;;;;;;34.97;15.17;;;11.30;99.90;;;;;;5043180;28;20206;-41
2022/01/01 06:47:27;;;;;;;29.53;15.20;;;11.30;99.90;;;;;;5049167;28;20192;-42
2022/01/01 06:49:54;;;;;;;36.53;15.90;;;11.30;99.90;;;;;;5044428;28;20206;-43
2022/01/01 06:52:20;;;;;;;33.67;16.33;;;11.30;99.90;;;;;;5042097;28;20286;-42
2022/01/01 06:54:47;;;;;;;45.63;16.50;;;11.30;99.90;;;;;;5034576;28;20238;-42
2022/01/01 06:57:15;;;;;;;34.53;16.83;;;11.30;99.90;;;;;;5045922;28;20199;-41
2022/01/01 06:59:42;;;;;;;45.87;16.63;;;11.30;99.90;;;;;;5041546;28;20713;-43
2022/01/01 07:02:09;;;;;;;38.73;17.47;;;11.30;99.90;;;;;;5040508;28;20230;-42
2022/01/01 07:04:35;;;;;;;32.70;16.20;;;11.30;99.90;;;;;;5040077;28;20218;-40
2022/01/01 07:07:03;;;;;;;33.83;15.83;;;11.30;99.90;;;;;;5043726;28;20203;-43
2022/01/01 07:09:29;;;;;;;33.17;15.70;;;11.30;99.90;;;;;;5027841;28;20199;-42
2022/01/01 07:11:57;;;;;;;33.63;15.20;;;11.30;99.90;;;;;;5048912;28;20221;-39
2022/01/01 07:14:25;;;;;;;35.13;15.23;;;11.20;99.90;;;;;;5045310;28;20416;-40
2022/01/01 07:16:52;;;;;;;32.57;14.77;;;11.20;99.90;;;;;;5053541;28;20723;-40
2022/01/01 07:19:19;;;;;;;39.70;16.27;;;11.30;99.90;;;;;;5043876;28;20230;-41
2022/01/01 07:21:46;;;;;;;37.20;16.53;;;11.30;99.90;;;;;;5043146;28;20237;-40
2022/01/01 07:24:12;;;;;;;39.47;16.67;;;11.30;99.90;;;;;;5041510;28;20203;-43
2022/01/01 07:26:39;;;;;;;34.43;17.10;;;11.30;99.90;;;;;;5036748;28;20490;-44
2022/01/01 07:29:06;;;;;;;39.63;16.97;;;11.30;99.90;;;;;;5046542;28;20203;-41
2022/01/01 07:31:34;;;;;;;34.53;14.30;;;11.30;99.90;;;;;;5053911;28;20199;-41
2022/01/01 07:34:01;;;;;;;30.07;15.60;;;11.30;99.90;;;;;;5042778;28;20226;-42
2022/01/01 07:36:28;;;;;;;32.63;16.00;;;11.30;99.90;;;;;;5051845;28;20206;-46
2022/01/01 07:38:55;;;;;;;36.70;15.43;;;11.30;99.90;;;;;;5054509;28;20718;-42
2022/01/01 07:41:21;;;;;;;39.63;17.00;;;11.30;99.90;;;;;;5041450;28;20377;-42
2022/01/01 07:43:48;;;;;;;36.20;15.07;;;11.20;99.90;;;;;;5060536;28;20218;-42
2022/01/01 07:46:14;;;;;;;34.53;15.63;;;11.30;99.90;;;;;;5051114;28;20363;-39
2022/01/01 07:48:43;;;;;;;28.90;14.10;;;11.30;99.90;;;;;;5050040;28;20218;-44
2022/01/01 07:51:09;;;;;;;39.40;15.23;;;11.30;99.90;;;;;;5038783;28;20959;-39
2022/01/01 07:53:36;;;;;;;30.37;15.40;;;11.30;99.90;;;;;;5044606;28;20218;-39
2022/01/01 07:56:05;;;;;;;32.70;14.67;;;11.30;99.90;;;;;;5053958;28;20199;-42
2022/01/01 07:58:32;;;;;;;34.87;15.47;;;11.30;99.90;;;;;;5043672;28;20219;-40
2022/01/01 08:00:58;;;;;;;36.63;15.60;;;11.30;99.90;;;;;;5050415;28;20268;-40
2022/01/01 08:03:25;;;;;;;42.23;15.77;;;11.30;99.90;;;;;;5052362;28;20233;-40
2022/01/01 08:05:54;;;;;;;29.47;15.43;;;11.30;99.90;;;;;;5042955;28;20204;-40
2022/01/01 08:08:22;;;;;;;37.17;16.90;;;11.30;99.90;;;;;;5041753;28;20261;-46
2022/01/01 08:10:48;;;;;;;38.33;15.43;;;11.30;99.90;;;;;;5051331;28;20191;-41
2022/01/01 08:13:22;;;;;;;31.37;15.20;;;11.30;99.90;;;;;;5035750;28;20215;-45
2022/01/01 08:15:49;;;;;;;36.00;14.50;;;11.30;99.90;;;;;;5061127;28;20234;-41
2022/01/01 08:18:16;;;;;;;37.17;15.70;;;11.30;99.90;;;;;;5048517;28;20221;-41
2022/01/01 08:20:44;;;;;;;44.37;17.00;;;11.30;99.90;;;;;;5043383;28;20210;-40
2022/01/01 08:23:12;;;;;;;41.90;17.63;;;11.30;99.90;;;;;;5058539;28;20229;-41
2022/01/01 08:25:40;;;;;;;39.57;16.67;;;11.30;99.90;;;;;;5043261;28;20206;-40
2022/01/01 08:28:07;;;;;;;33.57;15.67;;;11.30;99.90;;;;;;5039609;28;20329;-42
2022/01/01 08:30:35;;;;;;;41.97;16.30;;;11.30;99.90;;;;;;5038709;28;20592;-41
2022/01/01 08:33:02;;;;;;;40.93;17.30;;;11.30;99.90;;;;;;5039957;28;20253;-39
2022/01/01 08:35:30;;;;;;;39.57;16.23;;;11.30;99.90;;;;;;5050050;28;20214;-39
2022/01/01 08:37:56;;;;;;;54.80;17.93;;;11.30;99.90;;;;;;5039923;28;20202;-39
2022/01/01 08:40:25;;;;;;;42.47;17.93;;;11.30;99.90;;;;;;5042227;28;20203;-41
2022/01/01 08:42:51;;;;;;;45.63;17.60;;;11.30;99.90;;;;;;5041168;28;20223;-41
2022/01/01 08:45:19;;;;;;;37.97;17.53;;;11.30;99.90;;;;;;5029834;28;21495;-40
2022/01/01 08:47:46;;;;;;;36.73;17.90;;;11.30;99.90;;;;;;5048541;28;20215;-39
2022/01/01 08:50:13;;;;;;;42.03;17.63;;;11.30;99.90;;;;;;5040729;28;20912;-40
2022/01/01 08:52:40;;;;;;;45.43;18.60;;;11.30;99.90;;;;;;5050091;28;20229;-39
2022/01/01 08:55:08;;;;;;;53.07;18.53;;;11.40;99.90;;;;;;5056401;28;20905;-43
2022/01/01 08:57:37;;;;;;;40.33;19.67;;;11.40;99.90;;;;;;5049692;28;20636;-42
2022/01/01 09:00:07;;;;;;;48.17;18.17;;;11.40;99.90;;;;;;5052629;28;20206;-42
2022/01/01 09:02:34;;;;;;;42.30;17.83;;;11.40;99.90;;;;;;5042839;28;20223;-41
2022/01/01 09:05:01;;;;;;;40.93;18.13;;;11.40;99.90;;;;;;5045862;28;20686;-40
2022/01/01 09:07:29;;;;;;;44.70;16.97;;;11.40;99.90;;;;;;5052178;28;20195;-41
2022/01/01 09:09:57;;;;;;;42.57;18.67;;;11.40;99.90;;;;;;5053595;28;20191;-43
2022/01/01 09:12:23;;;;;;;38.07;17.37;;;11.40;99.90;;;;;;5049018;28;20727;-40
2022/01/01 09:14:51;;;;;;;38.10;16.93;;;11.40;99.90;;;;;;5051126;28;20203;-39
2022/01/01 09:17:18;;;;;;;38.10;17.83;;;11.40;99.90;;;;;;5029060;28;20433;-40
2022/01/01 09:19:45;;;;;;;43.30;18.83;;;11.40;99.90;;;;;;5051118;28;20215;-41
2022/01/01 09:22:12;;;;;;;45.77;18.83;;;11.40;99.90;;;;;;5049953;28;20222;-40
2022/01/01 09:24:38;;;;;;;41.73;18.67;;;11.40;99.90;;;;;;5057486;28;20899;-39
2022/01/01 09:27:06;;;;;;;43.70;18.77;;;11.50;99.90;;;;;;5048307;28;20209;-41
2022/01/01 09:29:33;;;;;;;45.80;18.90;;;11.50;99.90;;;;;;5053436;28;20203;-41
2022/01/01 09:32:02;;;;;;;46.13;18.73;;;11.50;99.90;;;;;;5046564;28;20230;-43
2022/01/01 09:34:28;;;;;;;53.27;20.40;;;11.50;99.90;;;;;;5052866;28;20203;-47
2022/01/01 09:36:57;;;;;;;46.87;19.73;;;11.50;99.90;;;;;;5054452;28;20213;-42
2022/01/01 09:39:25;;;;;;;39.43;17.63;;;11.50;99.90;;;;;;5056393;28;20202;-45
2022/01/01 09:41:53;;;;;;;36.23;19.17;;;11.50;99.90;;;;;;5059060;28;20659;-42
2022/01/01 09:44:21;;;;;;;43.23;18.07;;;11.50;99.90;;;;;;5054630;28;20214;-44
2022/01/01 09:46:49;;;;;;;49.87;18.93;;;11.50;99.90;;;;;;5054315;28;20281;-41
2022/01/01 09:49:18;;;;;;;37.13;17.07;;;11.60;99.90;;;;;;5043655;28;20187;-46
2022/01/01 09:51:46;;;;;;;52.63;19.03;;;11.60;99.90;;;;;;5050044;28;20264;-45
2022/01/01 09:54:14;;;;;;;43.27;19.57;;;11.60;99.90;;;;;;5045494;28;20207;-43
2022/01/01 09:56:41;;;;;;;45.50;19.87;;;11.60;99.90;;;;;;5052750;28;20209;-42
2022/01/01 09:59:08;;;;;;;58.37;22.20;;;11.60;99.90;;;;;;5054013;28;20203;-41
2022/01/01 10:01:35;;;;;;;65.87;21.87;;;11.60;99.90;;;;;;5051723;28;20201;-40
2022/01/01 10:04:01;;;;;;;48.10;21.00;;;11.60;99.90;;;;;;5040608;28;20253;-41
2022/01/01 10:06:31;;;;;;;52.27;22.13;;;11.60;99.90;;;;;;5052223;28;20270;-42
2022/01/01 10:08:59;;;;;;;45.83;22.30;;;11.60;99.90;;;;;;5049535;28;20294;-41
2022/01/01 10:11:27;;;;;;;54.47;23.20;;;11.60;99.90;;;;;;5046977;28;20241;-42
2022/01/01 10:13:55;;;;;;;53.70;23.90;;;11.70;99.90;;;;;;5052448;28;20230;-42
2022/01/01 10:16:22;;;;;;;50.23;23.07;;;11.60;99.90;;;;;;5049997;28;20203;-41
2022/01/01 10:18:50;;;;;;;50.60;23.93;;;11.60;99.90;;;;;;5037863;28;20206;-43
2022/01/01 10:21:19;;;;;;;61.73;24.87;;;11.60;99.90;;;;;;5055075;28;20663;-46
2022/01/01 10:24:14;;;;;;;57.13;26.50;;;11.70;99.90;;;;;;5052559;28;20233;-41
2022/01/01 10:29:32;;;;;;;70.07;28.43;;;11.60;99.90;;;;;;5047264;28;20275;-41
2022/01/01 10:32:00;;;;;;;63.00;28.47;;;11.70;99.90;;;;;;5043037;28;20298;-43
2022/01/01 10:34:28;;;;;;;68.97;29.33;;;11.60;99.90;;;;;;5039625;28;20203;-42
2022/01/01 10:36:56;;;;;;;61.23;29.90;;;11.70;99.90;;;;;;5044776;28;20497;-43
2022/01/01 10:39:24;;;;;;;63.33;30.90;;;11.60;99.90;;;;;;5045827;28;20199;-42
2022/01/01 10:41:54;;;;;;;64.13;30.30;;;11.60;99.90;;;;;;5041565;28;20199;-42
2022/01/01 10:44:28;;;;;;;69.07;31.33;;;11.60;99.90;;;;;;5045179;28;20230;-42
2022/01/01 10:46:56;;;;;;;70.97;32.30;;;11.60;99.90;;;;;;5053332;28;20188;-41
2022/01/01 10:49:37;;;;;;;76.77;34.07;;;11.60;99.90;;;;;;5048799;28;20234;-41
2022/01/01 10:52:19;;;;;;;68.37;34.63;;;11.60;99.90;;;;;;5040749;28;20692;-42
2022/01/01 10:54:53;;;;;;;66.77;32.13;;;11.60;99.90;;;;;;5043786;28;20296;-42
2022/01/01 10:57:28;;;;;;;76.33;34.27;;;11.60;99.90;;;;;;5054241;28;20199;-43
2022/01/01 11:00:15;;;;;;;76.13;34.67;;;11.60;99.90;;;;;;5051785;28;20239;-43
2022/01/01 11:02:44;;;;;;;74.30;34.97;;;11.60;99.90;;;;;;5044594;28;20301;-42
2022/01/01 11:05:11;;;;;;;75.93;35.20;;;11.60;99.90;;;;;;5047053;28;20203;-45
2022/01/01 11:07:49;;;;;;;69.23;32.03;;;11.60;99.90;;;;;;5041315;28;20214;-42
2022/01/01 11:10:17;;;;;;;72.87;32.43;;;11.60;99.90;;;;;;5058684;28;20213;-43
2022/01/01 11:12:44;;;;;;;63.70;29.83;;;11.60;99.90;;;;;;5047855;28;20218;-43
2022/01/01 11:15:12;;;;;;;66.80;31.10;;;11.60;99.90;;;;;;5051909;28;20195;-42
2022/01/01 11:17:40;;;;;;;63.33;31.53;;;11.60;99.90;;;;;;5051430;28;20743;-42
2022/01/01 11:20:08;;;;;;;62.30;30.17;;;11.60;99.90;;;;;;5048994;28;20564;-43
2022/01/01 11:22:35;;;;;;;59.27;29.07;;;11.60;99.90;;;;;;5036841;28;20313;-41
2022/01/01 11:25:03;;;;;;;55.70;29.43;;;11.60;99.90;;;;;;5052409;28;20198;-46
2022/01/01 11:27:31;;;;;;;57.90;26.80;;;11.60;99.90;;;;;;5039820;28;20686;-44
2022/01/01 11:29:59;;;;;;;52.00;27.30;;;11.60;99.90;;;;;;5057913;28;20202;-44
2022/01/01 11:32:34;;;;;;;64.77;28.77;;;11.60;99.90;;;;;;5047192;28;20230;-42
2022/01/01 11:35:03;;;;;;;55.97;26.40;;;11.60;99.90;;;;;;5045384;28;20206;-46
2022/01/01 11:37:45;;;;;;;50.70;25.23;;;11.70;99.90;;;;;;5030867;28;20237;-41
2022/01/01 11:40:17;;;;;;;51.00;24.60;;;11.70;99.90;;;;;;5051518;28;20281;-40
2022/01/01 11:42:48;;;;;;;49.53;25.63;;;11.70;99.90;;;;;;5042458;28;20267;-41
2022/01/01 11:45:40;;;;;;;45.63;23.87;;;11.70;99.90;;;;;;5051412;28;20207;-42
2022/01/01 11:48:29;;;;;;;44.67;22.87;;;11.70;99.90;;;;;;5048279;28;20553;-42
2022/01/01 11:50:56;;;;;;;45.13;20.67;;;11.80;99.90;;;;;;5045741;28;20727;-41
2022/01/01 11:53:28;;;;;;;46.13;22.97;;;11.80;99.90;;;;;;5038083;28;20674;-41
2022/01/01 11:56:06;;;;;;;45.97;21.60;;;11.80;99.90;;;;;;5056055;28;20214;-41
2022/01/01 11:58:50;;;;;;;43.10;20.83;;;11.90;99.90;;;;;;5041993;28;20190;-41
2022/01/01 12:01:18;;;;;;;38.00;19.67;;;11.90;99.90;;;;;;5047820;28;20199;-43
2022/01/01 12:03:52;;;;;;;35.87;20.60;;;11.90;99.90;;;;;;5046129;28;20222;-41
2022/01/01 12:06:20;;;;;;;45.20;19.30;;;12.00;99.90;;;;;;5047581;28;20197;-41
2022/01/01 12:08:49;;;;;;;38.63;19.77;;;12.00;99.90;;;;;;5031408;28;20233;-41
2022/01/01 12:11:29;;;;;;;42.60;19.07;;;12.00;99.90;;;;;;5052607;28;20208;-43
2022/01/01 12:13:57;;;;;;;34.83;19.10;;;12.10;99.90;;;;;;5040123;28;20265;-45
2022/01/01 12:16:25;;;;;;;43.00;18.90;;;12.10;99.90;;;;;;5048694;28;20218;-42
2022/01/01 12:19:01;;;;;;;41.33;19.57;;;12.20;99.90;;;;;;5044577;28;20207;-43
2022/01/01 12:21:28;;;;;;;38.23;18.67;;;12.20;99.90;;;;;;5053543;28;20194;-42
2022/01/01 12:23:59;;;;;;;47.10;20.90;;;12.20;99.90;;;;;;5029145;28;20242;-44
2022/01/01 12:26:33;;;;;;;41.07;19.83;;;12.20;99.90;;;;;;5043027;28;20265;-42
2022/01/01 12:29:07;;;;;;;37.30;18.50;;;12.20;99.90;;;;;;5049758;28;20229;-43
2022/01/01 12:31:34;;;;;;;34.67;19.47;;;12.20;99.90;;;;;;5052907;28;20558;-40
2022/01/01 12:34:09;;;;;;;37.00;19.77;;;12.20;99.90;;;;;;5055714;28;20553;-43
2022/01/01 12:36:40;;;;;;;37.60;18.63;;;12.20;99.90;;;;;;5055484;28;20201;-39
2022/01/01 12:39:09;;;;;;;36.07;18.67;;;12.20;99.90;;;;;;5043242;28;20259;-41
2022/01/01 12:41:37;;;;;;;35.50;19.20;;;12.20;99.90;;;;;;5050498;28;20203;-41